sensor_id;sensor_type;location;lat;lon;timestamp;pressure;altitude;pressure_sealevel;temperature;humidity
79129;BME280;68529;43.286;23.360;2023-07-08T00:00:38;99329.94;;;22.83;60.13
79129;BME280;68529;43.286;23.360;2023-07-08T00:03:03;99332.22;;;22.88;59.66
79129;BME280;68529;43.286;23.360;2023-07-08T00:05:29;99322.09;;;22.91;59.32
79129;BME280;68529;43.286;23.360;2023-07-08T00:07:54;99327.72;;;22.88;59.38
79129;BME280;68529;43.286;23.360;2023-07-08T00:10:27;99317.75;;;22.79;59.65
79129;BME280;68529;43.286;23.360;2023-07-08T00:12:55;99309.25;;;22.74;59.96
79129;BME280;68529;43.286;23.360;2023-07-08T00:15:24;99302.44;;;22.70;60.01
79129;BME280;68529;43.286;23.360;2023-07-08T00:17:50;99316.19;;;22.77;59.98
79129;BME280;68529;43.286;23.360;2023-07-08T00:20:35;99311.44;;;22.80;59.97
79129;BME280;68529;43.286;23.360;2023-07-08T00:23:02;99301.56;;;22.81;59.66
79129;BME280;68529;43.286;23.360;2023-07-08T00:25:28;99315.94;;;22.80;59.80
79129;BME280;68529;43.286;23.360;2023-07-08T00:27:54;99309.13;;;22.76;59.27
79129;BME280;68529;43.286;23.360;2023-07-08T00:30:21;99307.81;;;22.70;59.69
79129;BME280;68529;43.286;23.360;2023-07-08T00:32:47;99305.97;;;22.71;59.94
79129;BME280;68529;43.286;23.360;2023-07-08T00:35:12;99310.63;;;22.69;60.02
79129;BME280;68529;43.286;23.360;2023-07-08T00:37:38;99316.09;;;22.67;59.88
79129;BME280;68529;43.286;23.360;2023-07-08T00:40:15;99316.59;;;22.61;59.92
79129;BME280;68529;43.286;23.360;2023-07-08T00:42:43;99314.41;;;22.55;59.80
79129;BME280;68529;43.286;23.360;2023-07-08T00:48:11;99316.38;;;22.42;60.00
79129;BME280;68529;43.286;23.360;2023-07-08T00:50:37;99312.63;;;22.44;60.32
79129;BME280;68529;43.286;23.360;2023-07-08T00:53:35;99314.69;;;22.41;60.39
79129;BME280;68529;43.286;23.360;2023-07-08T00:58:37;99308.88;;;22.36;60.19
79129;BME280;68529;43.286;23.360;2023-07-08T01:01:05;99307.16;;;22.35;60.55
79129;BME280;68529;43.286;23.360;2023-07-08T01:03:35;99309.97;;;22.33;60.68
79129;BME280;68529;43.286;23.360;2023-07-08T01:06:02;99309.13;;;22.33;60.49
79129;BME280;68529;43.286;23.360;2023-07-08T01:08:28;99301.19;;;22.31;60.50
79129;BME280;68529;43.286;23.360;2023-07-08T01:11:00;99305.44;;;22.34;60.52
79129;BME280;68529;43.286;23.360;2023-07-08T01:13:35;99296.94;;;22.29;60.75
79129;BME280;68529;43.286;23.360;2023-07-08T01:16:04;99302.19;;;22.30;60.68
79129;BME280;68529;43.286;23.360;2023-07-08T01:18:30;99304.25;;;22.27;60.35
79129;BME280;68529;43.286;23.360;2023-07-08T01:21:01;99304.50;;;22.24;60.60
79129;BME280;68529;43.286;23.360;2023-07-08T01:23:26;99306.47;;;22.22;60.80
79129;BME280;68529;43.286;23.360;2023-07-08T01:25:52;99304.75;;;22.21;60.53
79129;BME280;68529;43.286;23.360;2023-07-08T01:28:17;99299.63;;;22.18;60.96
79129;BME280;68529;43.286;23.360;2023-07-08T01:30:44;99295.38;;;22.15;60.64
79129;BME280;68529;43.286;23.360;2023-07-08T01:33:17;99289.19;;;22.15;60.78
79129;BME280;68529;43.286;23.360;2023-07-08T01:35:45;99294.78;;;22.12;61.03
79129;BME280;68529;43.286;23.360;2023-07-08T01:38:12;99297.69;;;22.09;60.56
79129;BME280;68529;43.286;23.360;2023-07-08T01:40:49;99288.84;;;22.08;60.85
79129;BME280;68529;43.286;23.360;2023-07-08T01:43:15;99289.09;;;22.05;61.09
79129;BME280;68529;43.286;23.360;2023-07-08T01:45:41;99289.91;;;22.05;61.14
79129;BME280;68529;43.286;23.360;2023-07-08T01:48:10;99296.97;;;22.07;60.72
79129;BME280;68529;43.286;23.360;2023-07-08T01:50:39;99300.03;;;22.02;60.93
79129;BME280;68529;43.286;23.360;2023-07-08T01:53:14;99295.78;;;21.99;61.43
79129;BME280;68529;43.286;23.360;2023-07-08T01:55:40;99297.13;;;22.05;60.94
79129;BME280;68529;43.286;23.360;2023-07-08T01:58:05;99289.19;;;22.03;60.97
79129;BME280;68529;43.286;23.360;2023-07-08T02:00:31;99292.88;;;22.02;61.04
79129;BME280;68529;43.286;23.360;2023-07-08T02:02:56;99289.94;;;21.94;61.37
79129;BME280;68529;43.286;23.360;2023-07-08T02:05:22;99288.34;;;21.92;60.89
79129;BME280;68529;43.286;23.360;2023-07-08T02:07:48;99289.47;;;21.89;61.16
79129;BME280;68529;43.286;23.360;2023-07-08T02:10:13;99291.63;;;21.84;61.05
79129;BME280;68529;43.286;23.360;2023-07-08T02:12:39;99286.91;;;21.88;60.90
79129;BME280;68529;43.286;23.360;2023-07-08T02:15:06;99285.94;;;21.89;61.32
79129;BME280;68529;43.286;23.360;2023-07-08T02:17:31;99276.66;;;21.82;61.36
79129;BME280;68529;43.286;23.360;2023-07-08T02:19:57;99279.44;;;21.80;60.96
79129;BME280;68529;43.286;23.360;2023-07-08T02:22:23;99287.22;;;21.83;61.07
79129;BME280;68529;43.286;23.360;2023-07-08T02:24:48;99277.16;;;21.76;60.99
79129;BME280;68529;43.286;23.360;2023-07-08T02:27:14;99284.81;;;21.80;61.24
79129;BME280;68529;43.286;23.360;2023-07-08T02:29:40;99287.75;;;21.77;60.60
79129;BME280;68529;43.286;23.360;2023-07-08T02:32:06;99285.31;;;21.74;60.78
79129;BME280;68529;43.286;23.360;2023-07-08T02:34:31;99286.03;;;21.76;61.31
79129;BME280;68529;43.286;23.360;2023-07-08T02:36:57;99289.91;;;21.83;61.03
79129;BME280;68529;43.286;23.360;2023-07-08T02:39:23;99289.66;;;21.86;60.67
79129;BME280;68529;43.286;23.360;2023-07-08T02:41:48;99290.91;;;21.82;60.55
79129;BME280;68529;43.286;23.360;2023-07-08T02:44:14;99304.28;;;21.82;60.57
79129;BME280;68529;43.286;23.360;2023-07-08T02:46:39;99308.88;;;21.80;60.71
79129;BME280;68529;43.286;23.360;2023-07-08T02:49:05;99309.63;;;21.82;60.43
79129;BME280;68529;43.286;23.360;2023-07-08T02:51:31;99314.34;;;21.79;60.38
79129;BME280;68529;43.286;23.360;2023-07-08T02:53:56;99308.53;;;21.74;60.42
79129;BME280;68529;43.286;23.360;2023-07-08T02:56:22;99309.00;;;21.68;60.69
79129;BME280;68529;43.286;23.360;2023-07-08T02:58:48;99309.84;;;21.68;61.12
79129;BME280;68529;43.286;23.360;2023-07-08T03:01:14;99317.25;;;21.76;60.72
79129;BME280;68529;43.286;23.360;2023-07-08T03:03:44;99315.22;;;21.79;60.76
79129;BME280;68529;43.286;23.360;2023-07-08T03:06:10;99317.75;;;21.81;60.87
79129;BME280;68529;43.286;23.360;2023-07-08T03:08:35;99310.81;;;21.78;60.63
79129;BME280;68529;43.286;23.360;2023-07-08T03:11:03;99318.84;;;21.78;60.46
79129;BME280;68529;43.286;23.360;2023-07-08T03:13:29;99319.09;;;21.75;60.58
79129;BME280;68529;43.286;23.360;2023-07-08T03:15:56;99323.47;;;21.76;60.33
79129;BME280;68529;43.286;23.360;2023-07-08T03:18:22;99319.94;;;21.76;60.62
79129;BME280;68529;43.286;23.360;2023-07-08T03:20:52;99317.41;;;21.74;60.28
79129;BME280;68529;43.286;23.360;2023-07-08T03:23:18;99318.50;;;21.72;60.35
79129;BME280;68529;43.286;23.360;2023-07-08T03:25:44;99315.69;;;21.73;60.52
79129;BME280;68529;43.286;23.360;2023-07-08T03:28:10;99313.63;;;21.66;60.55
79129;BME280;68529;43.286;23.360;2023-07-08T03:30:43;99314.81;;;21.62;60.57
79129;BME280;68529;43.286;23.360;2023-07-08T03:33:10;99314.47;;;21.66;60.68
79129;BME280;68529;43.286;23.360;2023-07-08T03:35:36;99319.31;;;21.72;60.63
79129;BME280;68529;43.286;23.360;2023-07-08T03:38:02;99322.22;;;21.80;60.38
79129;BME280;68529;43.286;23.360;2023-07-08T03:40:28;99324.34;;;21.88;60.65
79129;BME280;68529;43.286;23.360;2023-07-08T03:42:53;99330.31;;;21.91;60.29
79129;BME280;68529;43.286;23.360;2023-07-08T03:45:19;99334.19;;;21.87;60.38
79129;BME280;68529;43.286;23.360;2023-07-08T03:47:44;99333.97;;;21.90;60.63
79129;BME280;68529;43.286;23.360;2023-07-08T03:50:18;99337.13;;;21.95;60.09
79129;BME280;68529;43.286;23.360;2023-07-08T03:52:46;99338.81;;;21.96;60.44
79129;BME280;68529;43.286;23.360;2023-07-08T03:55:12;99341.13;;;22.01;60.31
79129;BME280;68529;43.286;23.360;2023-07-08T03:57:37;99337.00;;;22.08;60.34
79129;BME280;68529;43.286;23.360;2023-07-08T04:00:03;99343.31;;;22.18;59.39
79129;BME280;68529;43.286;23.360;2023-07-08T04:02:29;99338.44;;;22.23;60.02
79129;BME280;68529;43.286;23.360;2023-07-08T04:04:54;99347.53;;;22.32;59.63
79129;BME280;68529;43.286;23.360;2023-07-08T04:07:20;99344.00;;;22.42;59.59
79129;BME280;68529;43.286;23.360;2023-07-08T04:09:45;99340.56;;;22.51;59.55
79129;BME280;68529;43.286;23.360;2023-07-08T04:12:15;99352.38;;;22.60;59.65
79129;BME280;68529;43.286;23.360;2023-07-08T04:14:40;99348.56;;;22.62;59.41
79129;BME280;68529;43.286;23.360;2023-07-08T04:17:08;99347.00;;;22.71;59.22
79129;BME280;68529;43.286;23.360;2023-07-08T04:19:34;99354.16;;;22.82;59.13
79129;BME280;68529;43.286;23.360;2023-07-08T04:22:01;99343.06;;;22.86;58.85
79129;BME280;68529;43.286;23.360;2023-07-08T04:24:26;99349.16;;;22.88;59.07
79129;BME280;68529;43.286;23.360;2023-07-08T04:26:52;99347.78;;;22.94;59.34
79129;BME280;68529;43.286;23.360;2023-07-08T04:29:20;99349.69;;;23.03;58.96
79129;BME280;68529;43.286;23.360;2023-07-08T04:31:46;99342.72;;;23.11;59.43
79129;BME280;68529;43.286;23.360;2023-07-08T04:34:12;99340.94;;;23.22;58.94
79129;BME280;68529;43.286;23.360;2023-07-08T04:36:38;99339.94;;;23.34;58.70
79129;BME280;68529;43.286;23.360;2023-07-08T04:39:05;99338.78;;;23.47;58.57
79129;BME280;68529;43.286;23.360;2023-07-08T04:41:31;99341.50;;;23.57;58.82
79129;BME280;68529;43.286;23.360;2023-07-08T04:43:57;99350.91;;;23.72;58.86
79129;BME280;68529;43.286;23.360;2023-07-08T04:46:42;99332.91;;;23.84;57.83
79129;BME280;68529;43.286;23.360;2023-07-08T04:49:10;99339.16;;;23.94;58.15
79129;BME280;68529;43.286;23.360;2023-07-08T04:51:36;99339.22;;;24.03;57.84
79129;BME280;68529;43.286;23.360;2023-07-08T04:54:02;99347.19;;;24.14;57.91
79129;BME280;68529;43.286;23.360;2023-07-08T04:56:55;99347.81;;;24.27;57.85
79129;BME280;68529;43.286;23.360;2023-07-08T04:59:23;99345.44;;;24.34;57.64
79129;BME280;68529;43.286;23.360;2023-07-08T05:01:49;99343.44;;;24.46;57.64
79129;BME280;68529;43.286;23.360;2023-07-08T05:04:17;99349.28;;;24.60;57.30
79129;BME280;68529;43.286;23.360;2023-07-08T05:06:42;99351.16;;;24.69;56.56
79129;BME280;68529;43.286;23.360;2023-07-08T05:09:09;99347.22;;;24.83;56.80
79129;BME280;68529;43.286;23.360;2023-07-08T05:11:35;99344.56;;;24.83;55.39
79129;BME280;68529;43.286;23.360;2023-07-08T05:14:01;99346.47;;;24.71;52.97
79129;BME280;68529;43.286;23.360;2023-07-08T05:16:27;99352.88;;;24.80;54.31
79129;BME280;68529;43.286;23.360;2023-07-08T05:18:52;99367.59;;;24.85;53.99
79129;BME280;68529;43.286;23.360;2023-07-08T05:21:19;99356.16;;;25.03;54.67
79129;BME280;68529;43.286;23.360;2023-07-08T05:23:45;99357.88;;;25.23;54.76
79129;BME280;68529;43.286;23.360;2023-07-08T05:26:12;99352.59;;;25.40;53.96
79129;BME280;68529;43.286;23.360;2023-07-08T05:28:37;99354.59;;;25.58;54.04
79129;BME280;68529;43.286;23.360;2023-07-08T05:31:03;99352.88;;;25.66;53.01
79129;BME280;68529;43.286;23.360;2023-07-08T05:33:30;99356.69;;;25.64;51.27
79129;BME280;68529;43.286;23.360;2023-07-08T05:35:57;99361.53;;;25.51;49.79
79129;BME280;68529;43.286;23.360;2023-07-08T05:38:23;99363.78;;;25.65;51.79
79129;BME280;68529;43.286;23.360;2023-07-08T05:40:50;99366.59;;;25.82;51.97
79129;BME280;68529;43.286;23.360;2023-07-08T05:43:17;99361.03;;;25.93;51.91
79129;BME280;68529;43.286;23.360;2023-07-08T05:45:43;99366.22;;;26.04;51.40
79129;BME280;68529;43.286;23.360;2023-07-08T05:48:09;99370.00;;;26.12;50.99
79129;BME280;68529;43.286;23.360;2023-07-08T05:50:35;99362.91;;;26.11;50.29
79129;BME280;68529;43.286;23.360;2023-07-08T05:53:00;99375.84;;;26.07;49.63
79129;BME280;68529;43.286;23.360;2023-07-08T05:55:26;99368.75;;;26.06;49.96
79129;BME280;68529;43.286;23.360;2023-07-08T05:57:51;99372.44;;;26.15;50.13
79129;BME280;68529;43.286;23.360;2023-07-08T06:00:16;99377.47;;;26.27;50.08
79129;BME280;68529;43.286;23.360;2023-07-08T06:02:42;99381.56;;;26.41;50.36
79129;BME280;68529;43.286;23.360;2023-07-08T06:05:08;99385.03;;;26.51;50.33
79129;BME280;68529;43.286;23.360;2023-07-08T06:07:33;99392.06;;;26.61;50.53
79129;BME280;68529;43.286;23.360;2023-07-08T06:09:59;99387.78;;;26.69;49.55
79129;BME280;68529;43.286;23.360;2023-07-08T06:12:24;99391.56;;;26.76;49.18
79129;BME280;68529;43.286;23.360;2023-07-08T06:14:50;99390.00;;;26.73;48.65
79129;BME280;68529;43.286;23.360;2023-07-08T06:17:17;99391.13;;;26.80;49.56
79129;BME280;68529;43.286;23.360;2023-07-08T06:19:43;99392.22;;;26.87;49.08
79129;BME280;68529;43.286;23.360;2023-07-08T06:22:08;99384.53;;;26.92;49.07
79129;BME280;68529;43.286;23.360;2023-07-08T06:24:34;99392.78;;;26.91;48.58
79129;BME280;68529;43.286;23.360;2023-07-08T06:26:59;99399.00;;;26.91;49.04
79129;BME280;68529;43.286;23.360;2023-07-08T06:29:25;99404.31;;;27.01;48.82
79129;BME280;68529;43.286;23.360;2023-07-08T06:31:51;99404.78;;;27.14;48.22
79129;BME280;68529;43.286;23.360;2023-07-08T06:34:18;99406.19;;;27.18;47.57
79129;BME280;68529;43.286;23.360;2023-07-08T06:36:44;99403.41;;;27.10;47.13
79129;BME280;68529;43.286;23.360;2023-07-08T06:39:09;99398.16;;;26.91;47.82
79129;BME280;68529;43.286;23.360;2023-07-08T06:41:37;99406.63;;;26.96;46.75
79129;BME280;68529;43.286;23.360;2023-07-08T06:44:03;99401.34;;;26.77;47.53
79129;BME280;68529;43.286;23.360;2023-07-08T06:46:28;99395.59;;;26.62;46.96
79129;BME280;68529;43.286;23.360;2023-07-08T06:48:54;99404.53;;;26.63;47.40
79129;BME280;68529;43.286;23.360;2023-07-08T06:51:19;99407.59;;;26.77;48.30
79129;BME280;68529;43.286;23.360;2023-07-08T06:53:45;99402.91;;;26.97;47.85
79129;BME280;68529;43.286;23.360;2023-07-08T06:56:10;99408.88;;;27.00;47.42
79129;BME280;68529;43.286;23.360;2023-07-08T06:58:35;99417.66;;;27.20;47.20
79129;BME280;68529;43.286;23.360;2023-07-08T07:01:01;99410.03;;;26.98;47.54
79129;BME280;68529;43.286;23.360;2023-07-08T07:03:26;99424.09;;;26.92;47.38
79129;BME280;68529;43.286;23.360;2023-07-08T07:05:52;99424.75;;;27.03;47.51
79129;BME280;68529;43.286;23.360;2023-07-08T07:08:17;99423.66;;;26.96;47.35
79129;BME280;68529;43.286;23.360;2023-07-08T07:10:42;99418.03;;;26.90;47.23
79129;BME280;68529;43.286;23.360;2023-07-08T07:13:08;99420.06;;;26.78;47.67
79129;BME280;68529;43.286;23.360;2023-07-08T07:15:34;99420.72;;;26.63;47.71
79129;BME280;68529;43.286;23.360;2023-07-08T07:17:59;99416.91;;;26.55;48.00
79129;BME280;68529;43.286;23.360;2023-07-08T07:20:25;99415.22;;;26.54;48.36
79129;BME280;68529;43.286;23.360;2023-07-08T07:22:51;99423.16;;;26.56;48.96
79129;BME280;68529;43.286;23.360;2023-07-08T07:25:17;99423.22;;;26.46;49.11
79129;BME280;68529;43.286;23.360;2023-07-08T07:27:43;99429.03;;;26.42;49.17
79129;BME280;68529;43.286;23.360;2023-07-08T07:30:09;99434.97;;;26.45;49.44
79129;BME280;68529;43.286;23.360;2023-07-08T07:32:38;99438.94;;;26.41;49.61
79129;BME280;68529;43.286;23.360;2023-07-08T07:35:04;99438.66;;;26.44;49.46
79129;BME280;68529;43.286;23.360;2023-07-08T07:37:30;99441.34;;;26.44;49.55
79129;BME280;68529;43.286;23.360;2023-07-08T07:39:55;99444.03;;;26.44;50.32
79129;BME280;68529;43.286;23.360;2023-07-08T07:42:21;99438.25;;;26.39;49.60
79129;BME280;68529;43.286;23.360;2023-07-08T07:44:47;99439.25;;;26.38;49.47
79129;BME280;68529;43.286;23.360;2023-07-08T07:47:13;99444.09;;;26.35;50.02
79129;BME280;68529;43.286;23.360;2023-07-08T07:49:39;99445.53;;;26.29;49.79
79129;BME280;68529;43.286;23.360;2023-07-08T07:52:05;99454.03;;;26.25;50.11
79129;BME280;68529;43.286;23.360;2023-07-08T07:54:31;99460.28;;;26.25;50.44
79129;BME280;68529;43.286;23.360;2023-07-08T07:56:56;99453.34;;;26.23;50.00
79129;BME280;68529;43.286;23.360;2023-07-08T07:59:22;99444.41;;;26.22;49.96
79129;BME280;68529;43.286;23.360;2023-07-08T08:01:48;99442.88;;;26.20;49.95
79129;BME280;68529;43.286;23.360;2023-07-08T08:04:13;99446.41;;;26.20;50.29
79129;BME280;68529;43.286;23.360;2023-07-08T08:06:39;99449.22;;;26.19;50.29
79129;BME280;68529;43.286;23.360;2023-07-08T08:09:05;99444.28;;;26.14;50.37
79129;BME280;68529;43.286;23.360;2023-07-08T08:11:32;99451.66;;;26.12;50.46
79129;BME280;68529;43.286;23.360;2023-07-08T08:13:57;99450.38;;;26.07;50.69
79129;BME280;68529;43.286;23.360;2023-07-08T08:16:23;99443.59;;;26.02;51.02
79129;BME280;68529;43.286;23.360;2023-07-08T08:18:49;99446.44;;;26.01;51.36
79129;BME280;68529;43.286;23.360;2023-07-08T08:21:14;99444.28;;;26.14;51.62
79129;BME280;68529;43.286;23.360;2023-07-08T08:23:40;99441.28;;;26.27;51.25
79129;BME280;68529;43.286;23.360;2023-07-08T08:26:05;99453.03;;;26.35;49.75
79129;BME280;68529;43.286;23.360;2023-07-08T08:28:31;99447.88;;;26.42;50.46
79129;BME280;68529;43.286;23.360;2023-07-08T08:30:56;99455.94;;;26.51;50.52
79129;BME280;68529;43.286;23.360;2023-07-08T08:33:22;99457.28;;;26.65;50.09
79129;BME280;68529;43.286;23.360;2023-07-08T08:35:47;99457.06;;;26.86;49.73
79129;BME280;68529;43.286;23.360;2023-07-08T08:38:13;99454.47;;;26.94;49.61
79129;BME280;68529;43.286;23.360;2023-07-08T08:40:39;99455.50;;;27.10;49.37
79129;BME280;68529;43.286;23.360;2023-07-08T08:43:18;99446.06;;;26.97;49.10
79129;BME280;68529;43.286;23.360;2023-07-08T08:46:23;99449.53;;;26.89;49.13
79129;BME280;68529;43.286;23.360;2023-07-08T08:48:53;99454.13;;;26.79;49.44
79129;BME280;68529;43.286;23.360;2023-07-08T08:51:23;99444.47;;;26.77;49.61
79129;BME280;68529;43.286;23.360;2023-07-08T08:53:53;99448.28;;;26.84;49.02
79129;BME280;68529;43.286;23.360;2023-07-08T08:56:24;99443.84;;;26.92;50.02
79129;BME280;68529;43.286;23.360;2023-07-08T09:01:45;99444.31;;;26.88;49.41
79129;BME280;68529;43.286;23.360;2023-07-08T09:04:15;99435.31;;;27.14;49.68
79129;BME280;68529;43.286;23.360;2023-07-08T09:06:44;99427.88;;;27.44;50.13
79129;BME280;68529;43.286;23.360;2023-07-08T09:09:26;99434.16;;;27.88;48.72
79129;BME280;68529;43.286;23.360;2023-07-08T09:12:16;99430.91;;;28.27;47.75
79129;BME280;68529;43.286;23.360;2023-07-08T09:14:43;99417.97;;;28.39;46.80
79129;BME280;68529;43.286;23.360;2023-07-08T09:20:12;99433.84;;;27.91;47.23
79129;BME280;68529;43.286;23.360;2023-07-08T09:28:13;99419.44;;;28.67;45.54
79129;BME280;68529;43.286;23.360;2023-07-08T09:30:39;99414.94;;;28.84;46.06
79129;BME280;68529;43.286;23.360;2023-07-08T09:33:07;99410.78;;;29.06;45.70
79129;BME280;68529;43.286;23.360;2023-07-08T09:35:47;99405.06;;;29.17;44.20
79129;BME280;68529;43.286;23.360;2023-07-08T09:38:15;99416.78;;;29.33;44.75
79129;BME280;68529;43.286;23.360;2023-07-08T09:40:47;99422.53;;;29.55;43.45
79129;BME280;68529;43.286;23.360;2023-07-08T09:43:33;99414.06;;;29.74;44.28
79129;BME280;68529;43.286;23.360;2023-07-08T09:46:01;99412.06;;;29.84;43.50
79129;BME280;68529;43.286;23.360;2023-07-08T09:48:35;99404.44;;;29.87;43.00
79129;BME280;68529;43.286;23.360;2023-07-08T09:51:01;99408.81;;;29.96;43.28
79129;BME280;68529;43.286;23.360;2023-07-08T09:53:27;99415.28;;;29.95;42.47
79129;BME280;68529;43.286;23.360;2023-07-08T09:55:56;99404.78;;;30.00;42.51
79129;BME280;68529;43.286;23.360;2023-07-08T09:58:34;99409.00;;;29.71;42.99
79129;BME280;68529;43.286;23.360;2023-07-08T10:01:12;99408.66;;;29.58;43.60
79129;BME280;68529;43.286;23.360;2023-07-08T10:03:38;99414.41;;;29.38;43.77
79129;BME280;68529;43.286;23.360;2023-07-08T10:06:17;99417.13;;;29.63;43.82
79129;BME280;68529;43.286;23.360;2023-07-08T10:08:45;99410.69;;;29.72;43.12
79129;BME280;68529;43.286;23.360;2023-07-08T10:11:29;99403.63;;;29.87;42.61
79129;BME280;68529;43.286;23.360;2023-07-08T10:14:05;99408.81;;;30.05;43.05
79129;BME280;68529;43.286;23.360;2023-07-08T10:16:34;99409.97;;;30.10;41.53
79129;BME280;68529;43.286;23.360;2023-07-08T10:19:00;99403.38;;;30.13;41.96
79129;BME280;68529;43.286;23.360;2023-07-08T10:21:36;99407.63;;;29.99;42.35
79129;BME280;68529;43.286;23.360;2023-07-08T10:26:37;99404.69;;;30.25;41.43
79129;BME280;68529;43.286;23.360;2023-07-08T10:29:22;99409.75;;;30.36;42.25
79129;BME280;68529;43.286;23.360;2023-07-08T10:34:42;99392.31;;;30.38;41.66
79129;BME280;68529;43.286;23.360;2023-07-08T10:37:43;99396.19;;;30.44;41.74
79129;BME280;68529;43.286;23.360;2023-07-08T10:43:29;99393.00;;;30.24;41.08
79129;BME280;68529;43.286;23.360;2023-07-08T10:54:24;99378.84;;;30.61;40.62
79129;BME280;68529;43.286;23.360;2023-07-08T11:04:35;99372.03;;;30.26;39.78
79129;BME280;68529;43.286;23.360;2023-07-08T11:07:13;99366.47;;;30.12;41.33
79129;BME280;68529;43.286;23.360;2023-07-08T11:09:51;99369.91;;;29.89;41.40
79129;BME280;68529;43.286;23.360;2023-07-08T11:12:34;99371.94;;;29.71;41.22
79129;BME280;68529;43.286;23.360;2023-07-08T11:15:23;99379.88;;;29.57;42.09
79129;BME280;68529;43.286;23.360;2023-07-08T11:18:06;99369.59;;;29.44;42.38
79129;BME280;68529;43.286;23.360;2023-07-08T11:23:32;99375.09;;;30.07;41.32
79129;BME280;68529;43.286;23.360;2023-07-08T11:26:10;99374.72;;;30.26;41.20
79129;BME280;68529;43.286;23.360;2023-07-08T11:28:39;99375.94;;;30.16;40.97
79129;BME280;68529;43.286;23.360;2023-07-08T11:31:05;99372.03;;;30.26;41.05
79129;BME280;68529;43.286;23.360;2023-07-08T11:33:32;99384.38;;;30.37;40.78
79129;BME280;68529;43.286;23.360;2023-07-08T11:35:59;99370.81;;;30.29;40.59
79129;BME280;68529;43.286;23.360;2023-07-08T11:38:26;99378.72;;;30.46;40.34
79129;BME280;68529;43.286;23.360;2023-07-08T11:41:00;99374.16;;;30.47;40.62
79129;BME280;68529;43.286;23.360;2023-07-08T11:43:56;99383.44;;;29.97;40.48
79129;BME280;68529;43.286;23.360;2023-07-08T11:46:29;99376.84;;;29.68;41.30
79129;BME280;68529;43.286;23.360;2023-07-08T11:49:06;99370.25;;;29.70;41.15
79129;BME280;68529;43.286;23.360;2023-07-08T11:51:39;99376.00;;;29.67;41.97
79129;BME280;68529;43.286;23.360;2023-07-08T11:54:19;99371.91;;;29.79;41.78
79129;BME280;68529;43.286;23.360;2023-07-08T11:59:23;99376.59;;;30.26;40.89
79129;BME280;68529;43.286;23.360;2023-07-08T12:02:02;99372.34;;;30.39;40.39
79129;BME280;68529;43.286;23.360;2023-07-08T12:04:33;99371.97;;;30.42;40.41
79129;BME280;68529;43.286;23.360;2023-07-08T12:07:15;99374.00;;;30.32;41.34
79129;BME280;68529;43.286;23.360;2023-07-08T12:09:47;99372.22;;;30.17;40.77
79129;BME280;68529;43.286;23.360;2023-07-08T12:12:24;99371.72;;;30.05;41.11
79129;BME280;68529;43.286;23.360;2023-07-08T12:14:52;99367.31;;;30.12;40.72
79129;BME280;68529;43.286;23.360;2023-07-08T12:17:19;99368.31;;;30.19;41.39
79129;BME280;68529;43.286;23.360;2023-07-08T12:19:46;99355.75;;;30.26;40.89
79129;BME280;68529;43.286;23.360;2023-07-08T12:22:13;99354.88;;;30.34;41.48
79129;BME280;68529;43.286;23.360;2023-07-08T12:24:40;99357.97;;;30.23;40.83
79129;BME280;68529;43.286;23.360;2023-07-08T12:27:08;99358.47;;;30.18;41.61
79129;BME280;68529;43.286;23.360;2023-07-08T12:29:34;99359.88;;;30.06;41.73
79129;BME280;68529;43.286;23.360;2023-07-08T12:31:59;99353.09;;;30.02;41.07
79129;BME280;68529;43.286;23.360;2023-07-08T12:34:25;99348.19;;;30.06;40.21
79129;BME280;68529;43.286;23.360;2023-07-08T12:36:51;99348.84;;;30.08;40.56
79129;BME280;68529;43.286;23.360;2023-07-08T12:39:18;99340.06;;;30.06;39.99
79129;BME280;68529;43.286;23.360;2023-07-08T12:41:45;99338.22;;;30.06;40.01
79129;BME280;68529;43.286;23.360;2023-07-08T12:44:21;99334.97;;;30.11;40.36
79129;BME280;68529;43.286;23.360;2023-07-08T12:46:48;99344.25;;;30.16;41.40
79129;BME280;68529;43.286;23.360;2023-07-08T12:49:15;99336.97;;;30.17;40.00
79129;BME280;68529;43.286;23.360;2023-07-08T12:51:43;99328.34;;;30.13;39.85
79129;BME280;68529;43.286;23.360;2023-07-08T12:54:10;99333.25;;;30.10;40.32
79129;BME280;68529;43.286;23.360;2023-07-08T12:56:36;99342.94;;;30.12;40.55
79129;BME280;68529;43.286;23.360;2023-07-08T12:59:04;99330.03;;;30.14;39.92
79129;BME280;68529;43.286;23.360;2023-07-08T13:01:30;99340.22;;;30.12;39.68
79129;BME280;68529;43.286;23.360;2023-07-08T13:04:02;99342.25;;;30.10;40.44
79129;BME280;68529;43.286;23.360;2023-07-08T13:06:32;99340.56;;;30.09;40.34
79129;BME280;68529;43.286;23.360;2023-07-08T13:09:06;99339.69;;;30.17;41.20
79129;BME280;68529;43.286;23.360;2023-07-08T13:11:33;99342.56;;;30.15;40.46
79129;BME280;68529;43.286;23.360;2023-07-08T13:14:01;99347.16;;;30.15;40.82
79129;BME280;68529;43.286;23.360;2023-07-08T13:16:32;99338.56;;;30.03;40.41
79129;BME280;68529;43.286;23.360;2023-07-08T13:18:59;99350.25;;;30.04;41.12
79129;BME280;68529;43.286;23.360;2023-07-08T13:21:24;99346.84;;;30.01;40.50
79129;BME280;68529;43.286;23.360;2023-07-08T13:23:52;99355.00;;;29.93;40.47
79129;BME280;68529;43.286;23.360;2023-07-08T13:26:22;99365.50;;;29.88;40.78
79129;BME280;68529;43.286;23.360;2023-07-08T13:28:48;99362.13;;;29.86;40.67
79129;BME280;68529;43.286;23.360;2023-07-08T13:31:18;99356.72;;;29.86;40.15
79129;BME280;68529;43.286;23.360;2023-07-08T13:33:52;99350.97;;;29.81;39.80
79129;BME280;68529;43.286;23.360;2023-07-08T13:36:24;99352.50;;;29.84;41.08
79129;BME280;68529;43.286;23.360;2023-07-08T13:38:50;99350.25;;;29.87;39.93
79129;BME280;68529;43.286;23.360;2023-07-08T13:41:21;99353.66;;;29.89;40.26
79129;BME280;68529;43.286;23.360;2023-07-08T13:43:47;99345.53;;;29.89;39.91